sensor_id;sensor_type;location;lat;lon;timestamp;temperature;humidity
65207;SHT31;58477;48.072;11.970;2024-01-10T00:01:48;-6.75;98.12
65207;SHT31;58477;48.072;11.970;2024-01-10T00:04:14;-6.75;97.84
65207;SHT31;58477;48.072;11.970;2024-01-10T00:06:42;-6.72;97.94
65207;SHT31;58477;48.072;11.970;2024-01-10T00:09:08;-6.70;98.19
65207;SHT31;58477;48.072;11.970;2024-01-10T00:11:34;-6.72;98.28
65207;SHT31;58477;48.072;11.970;2024-01-10T00:13:59;-6.68;98.44
65207;SHT31;58477;48.072;11.970;2024-01-10T00:16:25;-6.68;98.46
65207;SHT31;58477;48.072;11.970;2024-01-10T00:18:51;-6.71;99.03
65207;SHT31;58477;48.072;11.970;2024-01-10T00:21:17;-6.84;99.18
65207;SHT31;58477;48.072;11.970;2024-01-10T00:23:42;-6.78;99.31
65207;SHT31;58477;48.072;11.970;2024-01-10T00:26:07;-6.85;99.37
65207;SHT31;58477;48.072;11.970;2024-01-10T00:28:33;-6.75;99.44
65207;SHT31;58477;48.072;11.970;2024-01-10T00:30:58;-6.82;99.41
65207;SHT31;58477;48.072;11.970;2024-01-10T00:33:24;-6.67;98.84
65207;SHT31;58477;48.072;11.970;2024-01-10T00:35:49;-6.60;98.40
65207;SHT31;58477;48.072;11.970;2024-01-10T00:38:14;-6.61;98.39
65207;SHT31;58477;48.072;11.970;2024-01-10T00:40:40;-6.55;98.54
65207;SHT31;58477;48.072;11.970;2024-01-10T00:43:05;-6.58;98.19
65207;SHT31;58477;48.072;11.970;2024-01-10T00:45:31;-6.62;98.48
65207;SHT31;58477;48.072;11.970;2024-01-10T00:47:56;-6.57;98.36
65207;SHT31;58477;48.072;11.970;2024-01-10T00:50:21;-6.70;98.64
65207;SHT31;58477;48.072;11.970;2024-01-10T00:52:47;-6.77;99.02
65207;SHT31;58477;48.072;11.970;2024-01-10T00:55:12;-6.67;99.08
65207;SHT31;58477;48.072;11.970;2024-01-10T00:57:38;-6.64;99.00
65207;SHT31;58477;48.072;11.970;2024-01-10T01:00:08;-6.65;99.29
65207;SHT31;58477;48.072;11.970;2024-01-10T01:02:34;-6.70;99.03
65207;SHT31;58477;48.072;11.970;2024-01-10T01:05:00;-6.64;99.07
65207;SHT31;58477;48.072;11.970;2024-01-10T01:07:26;-6.65;99.09
65207;SHT31;58477;48.072;11.970;2024-01-10T01:09:51;-6.58;99.11
65207;SHT31;58477;48.072;11.970;2024-01-10T01:12:16;-6.72;99.14
65207;SHT31;58477;48.072;11.970;2024-01-10T01:14:42;-6.68;99.13
65207;SHT31;58477;48.072;11.970;2024-01-10T01:17:07;-6.74;99.51
65207;SHT31;58477;48.072;11.970;2024-01-10T01:19:33;-6.72;99.43
65207;SHT31;58477;48.072;11.970;2024-01-10T01:21:58;-6.85;99.61
65207;SHT31;58477;48.072;11.970;2024-01-10T01:24:23;-6.68;99.73
65207;SHT31;58477;48.072;11.970;2024-01-10T01:26:49;-6.61;99.62
65207;SHT31;58477;48.072;11.970;2024-01-10T01:29:14;-6.68;99.36
65207;SHT31;58477;48.072;11.970;2024-01-10T01:31:39;-6.55;99.26
65207;SHT31;58477;48.072;11.970;2024-01-10T01:34:05;-6.60;98.68
65207;SHT31;58477;48.072;11.970;2024-01-10T01:36:30;-6.64;99.00
65207;SHT31;58477;48.072;11.970;2024-01-10T01:38:56;-6.50;99.58
65207;SHT31;58477;48.072;11.970;2024-01-10T01:41:21;-6.48;99.14
65207;SHT31;58477;48.072;11.970;2024-01-10T01:43:47;-6.44;98.75
65207;SHT31;58477;48.072;11.970;2024-01-10T01:46:12;-6.54;98.96
65207;SHT31;58477;48.072;11.970;2024-01-10T01:48:38;-6.54;98.98
65207;SHT31;58477;48.072;11.970;2024-01-10T01:51:07;-6.45;98.86
65207;SHT31;58477;48.072;11.970;2024-01-10T01:53:34;-6.64;98.83
65207;SHT31;58477;48.072;11.970;2024-01-10T01:56:02;-6.62;98.61
65207;SHT31;58477;48.072;11.970;2024-01-10T01:58:29;-6.65;98.92
65207;SHT31;58477;48.072;11.970;2024-01-10T02:00:55;-6.70;99.23
65207;SHT31;58477;48.072;11.970;2024-01-10T02:03:21;-6.58;98.95
65207;SHT31;58477;48.072;11.970;2024-01-10T02:05:46;-6.51;99.03
65207;SHT31;58477;48.072;11.970;2024-01-10T02:08:13;-6.41;98.89
65207;SHT31;58477;48.072;11.970;2024-01-10T02:10:38;-6.51;98.73
65207;SHT31;58477;48.072;11.970;2024-01-10T02:13:04;-6.48;98.51
65207;SHT31;58477;48.072;11.970;2024-01-10T02:15:30;-6.52;97.99
65207;SHT31;58477;48.072;11.970;2024-01-10T02:17:55;-6.48;98.24
65207;SHT31;58477;48.072;11.970;2024-01-10T02:20:21;-6.52;98.10
65207;SHT31;58477;48.072;11.970;2024-01-10T02:22:47;-6.47;98.32
65207;SHT31;58477;48.072;11.970;2024-01-10T02:25:13;-6.37;98.18
65207;SHT31;58477;48.072;11.970;2024-01-10T02:27:40;-6.47;98.12
65207;SHT31;58477;48.072;11.970;2024-01-10T02:30:07;-6.65;98.39
65207;SHT31;58477;48.072;11.970;2024-01-10T02:32:33;-6.58;98.69
65207;SHT31;58477;48.072;11.970;2024-01-10T02:34:58;-6.61;98.69
65207;SHT31;58477;48.072;11.970;2024-01-10T02:37:24;-6.62;98.92
65207;SHT31;58477;48.072;11.970;2024-01-10T02:39:49;-6.64;99.04
65207;SHT31;58477;48.072;11.970;2024-01-10T02:42:16;-6.58;98.67
65207;SHT31;58477;48.072;11.970;2024-01-10T02:44:42;-6.60;98.54
65207;SHT31;58477;48.072;11.970;2024-01-10T02:47:07;-6.55;98.50
65207;SHT31;58477;48.072;11.970;2024-01-10T02:49:33;-6.60;98.44
65207;SHT31;58477;48.072;11.970;2024-01-10T02:51:59;-6.55;98.35
65207;SHT31;58477;48.072;11.970;2024-01-10T02:54:25;-6.60;98.97
65207;SHT31;58477;48.072;11.970;2024-01-10T02:56:51;-6.58;98.68
65207;SHT31;58477;48.072;11.970;2024-01-10T02:59:16;-6.70;99.06
65207;SHT31;58477;48.072;11.970;2024-01-10T03:01:41;-6.61;99.03
65207;SHT31;58477;48.072;11.970;2024-01-10T03:04:07;-6.65;98.91
65207;SHT31;58477;48.072;11.970;2024-01-10T03:06:32;-6.81;99.42
65207;SHT31;58477;48.072;11.970;2024-01-10T03:08:58;-6.72;99.57
65207;SHT31;58477;48.072;11.970;2024-01-10T03:11:23;-6.84;99.99
65207;SHT31;58477;48.072;11.970;2024-01-10T03:14:03;-6.84;99.99
65207;SHT31;58477;48.072;11.970;2024-01-10T03:16:30;-6.75;99.84
65207;SHT31;58477;48.072;11.970;2024-01-10T03:18:55;-6.74;98.96
65207;SHT31;58477;48.072;11.970;2024-01-10T03:21:21;-6.82;99.01
65207;SHT31;58477;48.072;11.970;2024-01-10T03:23:50;-6.88;99.17
65207;SHT31;58477;48.072;11.970;2024-01-10T03:26:16;-6.98;99.46
65207;SHT31;58477;48.072;11.970;2024-01-10T03:28:41;-6.94;99.48
65207;SHT31;58477;48.072;11.970;2024-01-10T03:31:06;-6.89;99.44
65207;SHT31;58477;48.072;11.970;2024-01-10T03:33:32;-6.95;99.61
65207;SHT31;58477;48.072;11.970;2024-01-10T03:35:58;-6.89;99.44
65207;SHT31;58477;48.072;11.970;2024-01-10T03:38:23;-6.84;99.22
65207;SHT31;58477;48.072;11.970;2024-01-10T03:40:49;-6.96;99.61
65207;SHT31;58477;48.072;11.970;2024-01-10T03:43:14;-6.95;99.49
65207;SHT31;58477;48.072;11.970;2024-01-10T03:45:42;-6.94;99.71
65207;SHT31;58477;48.072;11.970;2024-01-10T03:48:07;-6.94;99.60
65207;SHT31;58477;48.072;11.970;2024-01-10T03:50:32;-6.80;99.30
65207;SHT31;58477;48.072;11.970;2024-01-10T03:52:58;-7.13;99.99
65207;SHT31;58477;48.072;11.970;2024-01-10T03:55:23;-7.02;99.99
65207;SHT31;58477;48.072;11.970;2024-01-10T03:57:48;-6.99;99.58
65207;SHT31;58477;48.072;11.970;2024-01-10T04:00:14;-6.91;99.51
65207;SHT31;58477;48.072;11.970;2024-01-10T04:02:39;-7.05;99.79
65207;SHT31;58477;48.072;11.970;2024-01-10T04:05:08;-6.85;99.72
65207;SHT31;58477;48.072;11.970;2024-01-10T04:07:41;-6.85;99.32
65207;SHT31;58477;48.072;11.970;2024-01-10T04:10:07;-7.01;99.60
65207;SHT31;58477;48.072;11.970;2024-01-10T04:12:38;-6.98;99.91
65207;SHT31;58477;48.072;11.970;2024-01-10T04:15:04;-6.91;99.80
65207;SHT31;58477;48.072;11.970;2024-01-10T04:17:30;-7.06;99.87
65207;SHT31;58477;48.072;11.970;2024-01-10T04:19:56;-6.94;99.90
65207;SHT31;58477;48.072;11.970;2024-01-10T04:22:21;-6.92;99.99
65207;SHT31;58477;48.072;11.970;2024-01-10T04:24:48;-7.15;99.99
65207;SHT31;58477;48.072;11.970;2024-01-10T04:27:14;-6.98;99.99
65207;SHT31;58477;48.072;11.970;2024-01-10T04:29:40;-7.18;99.99
65207;SHT31;58477;48.072;11.970;2024-01-10T04:32:06;-6.94;99.99
65207;SHT31;58477;48.072;11.970;2024-01-10T04:34:31;-6.81;99.86
65207;SHT31;58477;48.072;11.970;2024-01-10T04:36:56;-6.96;99.62
65207;SHT31;58477;48.072;11.970;2024-01-10T04:39:22;-6.81;99.65
65207;SHT31;58477;48.072;11.970;2024-01-10T04:41:48;-6.94;99.29
65207;SHT31;58477;48.072;11.970;2024-01-10T04:44:13;-7.01;99.74
65207;SHT31;58477;48.072;11.970;2024-01-10T04:46:39;-6.96;99.58
65207;SHT31;58477;48.072;11.970;2024-01-10T04:49:06;-6.96;99.33
65207;SHT31;58477;48.072;11.970;2024-01-10T04:51:50;-7.09;99.99
65207;SHT31;58477;48.072;11.970;2024-01-10T04:54:16;-6.96;99.99
65207;SHT31;58477;48.072;11.970;2024-01-10T04:56:41;-6.92;99.99
65207;SHT31;58477;48.072;11.970;2024-01-10T04:59:07;-6.78;99.99
65207;SHT31;58477;48.072;11.970;2024-01-10T05:01:32;-6.71;99.43
65207;SHT31;58477;48.072;11.970;2024-01-10T05:03:58;-7.16;99.99
65207;SHT31;58477;48.072;11.970;2024-01-10T05:06:23;-6.98;99.99
65207;SHT31;58477;48.072;11.970;2024-01-10T05:08:49;-7.12;99.99
65207;SHT31;58477;48.072;11.970;2024-01-10T05:11:15;-7.25;99.99
65207;SHT31;58477;48.072;11.970;2024-01-10T05:13:42;-7.37;99.99
65207;SHT31;58477;48.072;11.970;2024-01-10T05:16:07;-7.44;99.99
65207;SHT31;58477;48.072;11.970;2024-01-10T05:18:33;-7.51;99.99
65207;SHT31;58477;48.072;11.970;2024-01-10T05:20:59;-7.26;99.99
65207;SHT31;58477;48.072;11.970;2024-01-10T05:23:24;-7.27;99.99
65207;SHT31;58477;48.072;11.970;2024-01-10T05:25:50;-7.20;99.99
65207;SHT31;58477;48.072;11.970;2024-01-10T05:28:15;-7.01;99.99
65207;SHT31;58477;48.072;11.970;2024-01-10T05:30:41;-7.27;99.99
65207;SHT31;58477;48.072;11.970;2024-01-10T05:33:08;-7.05;99.99
65207;SHT31;58477;48.072;11.970;2024-01-10T05:35:34;-7.04;99.99
65207;SHT31;58477;48.072;11.970;2024-01-10T05:38:01;-7.05;99.99
65207;SHT31;58477;48.072;11.970;2024-01-10T05:40:28;-7.22;99.99
65207;SHT31;58477;48.072;11.970;2024-01-10T05:42:55;-7.16;99.99
65207;SHT31;58477;48.072;11.970;2024-01-10T05:45:20;-7.49;99.99
65207;SHT31;58477;48.072;11.970;2024-01-10T05:47:46;-7.40;99.99
65207;SHT31;58477;48.072;11.970;2024-01-10T05:50:13;-7.53;99.99
65207;SHT31;58477;48.072;11.970;2024-01-10T05:52:38;-7.43;99.99
65207;SHT31;58477;48.072;11.970;2024-01-10T05:55:04;-7.53;99.99
65207;SHT31;58477;48.072;11.970;2024-01-10T05:57:31;-7.73;99.99
65207;SHT31;58477;48.072;11.970;2024-01-10T05:59:57;-7.47;99.99
65207;SHT31;58477;48.072;11.970;2024-01-10T06:02:23;-7.39;99.99
65207;SHT31;58477;48.072;11.970;2024-01-10T06:04:50;-7.56;99.99
65207;SHT31;58477;48.072;11.970;2024-01-10T06:07:15;-7.47;99.99
65207;SHT31;58477;48.072;11.970;2024-01-10T06:09:41;-7.51;99.99
65207;SHT31;58477;48.072;11.970;2024-01-10T06:12:09;-7.37;99.99
65207;SHT31;58477;48.072;11.970;2024-01-10T06:14:34;-7.30;99.99
65207;SHT31;58477;48.072;11.970;2024-01-10T06:16:59;-7.43;99.99
65207;SHT31;58477;48.072;11.970;2024-01-10T06:19:26;-7.42;99.99
65207;SHT31;58477;48.072;11.970;2024-01-10T06:21:51;-7.37;99.99
65207;SHT31;58477;48.072;11.970;2024-01-10T06:24:21;-7.53;99.99
65207;SHT31;58477;48.072;11.970;2024-01-10T06:26:46;-7.35;99.99
65207;SHT31;58477;48.072;11.970;2024-01-10T06:29:11;-7.30;99.99
65207;SHT31;58477;48.072;11.970;2024-01-10T06:31:37;-7.18;99.99
65207;SHT31;58477;48.072;11.970;2024-01-10T06:34:02;-7.35;99.99
65207;SHT31;58477;48.072;11.970;2024-01-10T06:36:27;-7.06;99.99
65207;SHT31;58477;48.072;11.970;2024-01-10T06:38:53;-7.18;99.99
65207;SHT31;58477;48.072;11.970;2024-01-10T06:41:21;-7.40;99.99
65207;SHT31;58477;48.072;11.970;2024-01-10T06:43:49;-7.29;99.99
65207;SHT31;58477;48.072;11.970;2024-01-10T06:46:14;-7.04;99.99
65207;SHT31;58477;48.072;11.970;2024-01-10T06:48:40;-7.16;99.99
65207;SHT31;58477;48.072;11.970;2024-01-10T06:51:09;-7.08;99.99
65207;SHT31;58477;48.072;11.970;2024-01-10T06:53:35;-7.09;99.99
65207;SHT31;58477;48.072;11.970;2024-01-10T06:56:00;-7.27;99.99
65207;SHT31;58477;48.072;11.970;2024-01-10T06:58:25;-7.50;99.99
65207;SHT31;58477;48.072;11.970;2024-01-10T07:00:51;-7.32;99.99
65207;SHT31;58477;48.072;11.970;2024-01-10T07:03:17;-7.33;99.99
65207;SHT31;58477;48.072;11.970;2024-01-10T07:05:43;-7.12;99.99
65207;SHT31;58477;48.072;11.970;2024-01-10T07:08:09;-7.09;99.99
65207;SHT31;58477;48.072;11.970;2024-01-10T07:10:35;-6.87;99.99
65207;SHT31;58477;48.072;11.970;2024-01-10T07:13:00;-7.32;99.99
65207;SHT31;58477;48.072;11.970;2024-01-10T07:15:29;-7.39;99.99
65207;SHT31;58477;48.072;11.970;2024-01-10T07:17:55;-7.46;99.99
65207;SHT31;58477;48.072;11.970;2024-01-10T07:20:20;-7.25;99.99
65207;SHT31;58477;48.072;11.970;2024-01-10T07:22:46;-7.13;99.99
65207;SHT31;58477;48.072;11.970;2024-01-10T07:25:11;-7.15;99.99
65207;SHT31;58477;48.072;11.970;2024-01-10T07:27:43;-6.91;99.99
65207;SHT31;58477;48.072;11.970;2024-01-10T07:30:09;-7.20;99.99
65207;SHT31;58477;48.072;11.970;2024-01-10T07:32:40;-7.18;99.99
65207;SHT31;58477;48.072;11.970;2024-01-10T07:35:06;-7.20;99.99
65207;SHT31;58477;48.072;11.970;2024-01-10T07:37:36;-7.01;99.99
65207;SHT31;58477;48.072;11.970;2024-01-10T07:40:02;-6.77;99.99
65207;SHT31;58477;48.072;11.970;2024-01-10T07:42:30;-6.65;99.99
65207;SHT31;58477;48.072;11.970;2024-01-10T07:44:56;-6.68;99.99
65207;SHT31;58477;48.072;11.970;2024-01-10T07:47:22;-6.72;99.99
65207;SHT31;58477;48.072;11.970;2024-01-10T07:49:47;-6.70;99.99
65207;SHT31;58477;48.072;11.970;2024-01-10T07:52:13;-6.44;99.99
65207;SHT31;58477;48.072;11.970;2024-01-10T07:54:38;-6.81;99.99
65207;SHT31;58477;48.072;11.970;2024-01-10T07:57:03;-6.58;99.99
65207;SHT31;58477;48.072;11.970;2024-01-10T07:59:29;-6.55;99.99
65207;SHT31;58477;48.072;11.970;2024-01-10T08:01:55;-6.52;99.99
65207;SHT31;58477;48.072;11.970;2024-01-10T08:04:27;-6.67;99.99
65207;SHT31;58477;48.072;11.970;2024-01-10T08:06:53;-6.38;99.99
65207;SHT31;58477;48.072;11.970;2024-01-10T08:09:19;-6.28;99.99
65207;SHT31;58477;48.072;11.970;2024-01-10T08:11:45;-6.13;99.99
65207;SHT31;58477;48.072;11.970;2024-01-10T08:14:11;-6.16;99.72
65207;SHT31;58477;48.072;11.970;2024-01-10T08:16:36;-6.07;99.53
65207;SHT31;58477;48.072;11.970;2024-01-10T08:19:02;-6.27;99.48
65207;SHT31;58477;48.072;11.970;2024-01-10T08:21:27;-6.34;99.95
65207;SHT31;58477;48.072;11.970;2024-01-10T08:23:52;-6.41;99.99
65207;SHT31;58477;48.072;11.970;2024-01-10T08:26:18;-6.13;99.78
65207;SHT31;58477;48.072;11.970;2024-01-10T08:28:43;-6.11;99.61
65207;SHT31;58477;48.072;11.970;2024-01-10T08:31:09;-5.87;99.99
65207;SHT31;58477;48.072;11.970;2024-01-10T08:33:34;-5.72;98.90
65207;SHT31;58477;48.072;11.970;2024-01-10T08:35:59;-5.97;97.98
65207;SHT31;58477;48.072;11.970;2024-01-10T08:38:25;-5.93;98.45
65207;SHT31;58477;48.072;11.970;2024-01-10T08:40:50;-6.02;99.32
65207;SHT31;58477;48.072;11.970;2024-01-10T08:43:15;-6.09;98.63
65207;SHT31;58477;48.072;11.970;2024-01-10T08:45:43;-5.61;98.56
65207;SHT31;58477;48.072;11.970;2024-01-10T08:48:09;-5.76;98.42
65207;SHT31;58477;48.072;11.970;2024-01-10T08:50:35;-5.78;98.33
65207;SHT31;58477;48.072;11.970;2024-01-10T08:53:01;-5.75;98.37
65207;SHT31;58477;48.072;11.970;2024-01-10T08:55:30;-5.66;98.44
65207;SHT31;58477;48.072;11.970;2024-01-10T08:57:55;-5.54;98.16
65207;SHT31;58477;48.072;11.970;2024-01-10T09:00:21;-5.32;97.95
65207;SHT31;58477;48.072;11.970;2024-01-10T09:02:46;-5.47;98.19
65207;SHT31;58477;48.072;11.970;2024-01-10T09:05:12;-5.59;98.33
65207;SHT31;58477;48.072;11.970;2024-01-10T09:07:37;-5.59;97.70
65207;SHT31;58477;48.072;11.970;2024-01-10T09:10:03;-5.62;97.79
65207;SHT31;58477;48.072;11.970;2024-01-10T09:12:30;-5.52;99.01
65207;SHT31;58477;48.072;11.970;2024-01-10T09:14:56;-5.43;98.60
65207;SHT31;58477;48.072;11.970;2024-01-10T09:17:21;-5.14;97.67
65207;SHT31;58477;48.072;11.970;2024-01-10T09:19:47;-5.10;97.17
65207;SHT31;58477;48.072;11.970;2024-01-10T09:22:12;-5.07;96.36
65207;SHT31;58477;48.072;11.970;2024-01-10T09:24:39;-5.36;98.04
65207;SHT31;58477;48.072;11.970;2024-01-10T09:27:04;-5.00;97.01
65207;SHT31;58477;48.072;11.970;2024-01-10T09:29:30;-5.03;96.61
65207;SHT31;58477;48.072;11.970;2024-01-10T09:31:56;-5.04;98.19
65207;SHT31;58477;48.072;11.970;2024-01-10T09:34:22;-4.83;96.73
65207;SHT31;58477;48.072;11.970;2024-01-10T09:36:47;-5.11;98.21
65207;SHT31;58477;48.072;11.970;2024-01-10T09:39:13;-5.21;96.94
65207;SHT31;58477;48.072;11.970;2024-01-10T09:41:45;-4.93;97.78
65207;SHT31;58477;48.072;11.970;2024-01-10T09:44:12;-4.84;97.18
65207;SHT31;58477;48.072;11.970;2024-01-10T09:46:38;-5.30;97.52
65207;SHT31;58477;48.072;11.970;2024-01-10T09:49:06;-5.32;98.33
65207;SHT31;58477;48.072;11.970;2024-01-10T09:51:33;-5.65;98.95
65207;SHT31;58477;48.072;11.970;2024-01-10T09:54:02;-5.32;99.70
65207;SHT31;58477;48.072;11.970;2024-01-10T09:56:28;-5.31;98.69
65207;SHT31;58477;48.072;11.970;2024-01-10T09:58:55;-5.55;99.50
65207;SHT31;58477;48.072;11.970;2024-01-10T10:01:23;-4.93;98.59
65207;SHT31;58477;48.072;11.970;2024-01-10T10:03:50;-4.96;97.44
65207;SHT31;58477;48.072;11.970;2024-01-10T10:06:16;-4.76;97.31
65207;SHT31;58477;48.072;11.970;2024-01-10T10:08:41;-4.50;97.26
65207;SHT31;58477;48.072;11.970;2024-01-10T10:11:11;-4.30;96.65
65207;SHT31;58477;48.072;11.970;2024-01-10T10:13:38;-4.32;96.89
65207;SHT31;58477;48.072;11.970;2024-01-10T10:16:08;-4.23;95.83
65207;SHT31;58477;48.072;11.970;2024-01-10T10:18:35;-4.69;97.12
65207;SHT31;58477;48.072;11.970;2024-01-10T10:21:14;-4.80;97.14
65207;SHT31;58477;48.072;11.970;2024-01-10T10:23:57;-4.73;98.47
65207;SHT31;58477;48.072;11.970;2024-01-10T10:26:22;-4.34;96.55
65207;SHT31;58477;48.072;11.970;2024-01-10T10:28:49;-4.26;96.55
65207;SHT31;58477;48.072;11.970;2024-01-10T10:31:17;-3.95;95.60
65207;SHT31;58477;48.072;11.970;2024-01-10T10:33:44;-3.89;95.63
65207;SHT31;58477;48.072;11.970;2024-01-10T10:36:10;-3.95;94.38
65207;SHT31;58477;48.072;11.970;2024-01-10T10:38:36;-4.28;95.43
65207;SHT31;58477;48.072;11.970;2024-01-10T10:41:05;-4.43;95.29
65207;SHT31;58477;48.072;11.970;2024-01-10T10:43:36;-4.02;95.41
65207;SHT31;58477;48.072;11.970;2024-01-10T10:46:03;-4.03;96.38
65207;SHT31;58477;48.072;11.970;2024-01-10T10:48:32;-3.63;95.44
65207;SHT31;58477;48.072;11.970;2024-01-10T10:51:33;-2.96;94.53
65207;SHT31;58477;48.072;11.970;2024-01-10T10:53:59;-3.32;93.12
65207;SHT31;58477;48.072;11.970;2024-01-10T10:56:29;-3.04;92.01
65207;SHT31;58477;48.072;11.970;2024-01-10T10:58:56;-3.14;92.26
65207;SHT31;58477;48.072;11.970;2024-01-10T11:01:23;-3.34;93.51
65207;SHT31;58477;48.072;11.970;2024-01-10T11:03:49;-3.40;93.43
65207;SHT31;58477;48.072;11.970;2024-01-10T11:06:15;-2.56;91.86
65207;SHT31;58477;48.072;11.970;2024-01-10T11:08:45;-3.04;92.29
65207;SHT31;58477;48.072;11.970;2024-01-10T11:11:41;-3.64;93.91
65207;SHT31;58477;48.072;11.970;2024-01-10T11:20:17;-2.18;91.20
65207;SHT31;58477;48.072;11.970;2024-01-10T11:22:53;-1.87;89.41
65207;SHT31;58477;48.072;11.970;2024-01-10T11:25:23;-2.17;89.36
65207;SHT31;58477;48.072;11.970;2024-01-10T11:27:52;-2.49;91.03
65207;SHT31;58477;48.072;11.970;2024-01-10T11:36:07;-2.31;90.12
65207;SHT31;58477;48.072;11.970;2024-01-10T11:38:59;-2.99;90.70
65207;SHT31;58477;48.072;11.970;2024-01-10T11:41:31;-3.06;92.13
65207;SHT31;58477;48.072;11.970;2024-01-10T11:46:39;-3.19;93.62
65207;SHT31;58477;48.072;11.970;2024-01-10T11:49:12;-3.23;93.42
65207;SHT31;58477;48.072;11.970;2024-01-10T11:51:39;-3.61;94.48
65207;SHT31;58477;48.072;11.970;2024-01-10T11:54:06;-3.36;94.37
65207;SHT31;58477;48.072;11.970;2024-01-10T11:56:42;-3.30;94.05
65207;SHT31;58477;48.072;11.970;2024-01-10T11:59:09;-3.63;94.35
65207;SHT31;58477;48.072;11.970;2024-01-10T12:01:37;-3.19;94.65
65207;SHT31;58477;48.072;11.970;2024-01-10T12:04:03;-3.42;94.15
65207;SHT31;58477;48.072;11.970;2024-01-10T12:06:34;-3.75;95.08
65207;SHT31;58477;48.072;11.970;2024-01-10T12:09:00;-3.33;94.27
65207;SHT31;58477;48.072;11.970;2024-01-10T12:11:33;-3.95;95.73
65207;SHT31;58477;48.072;11.970;2024-01-10T12:13:59;-3.73;95.94
65207;SHT31;58477;48.072;11.970;2024-01-10T12:16:24;-3.50;95.41
65207;SHT31;58477;48.072;11.970;2024-01-10T12:18:49;-3.68;94.83
65207;SHT31;58477;48.072;11.970;2024-01-10T12:21:16;-4.05;95.99
65207;SHT31;58477;48.072;11.970;2024-01-10T12:23:43;-3.64;96.12
65207;SHT31;58477;48.072;11.970;2024-01-10T12:26:10;-3.54;95.19
65207;SHT31;58477;48.072;11.970;2024-01-10T12:28:39;-3.87;95.60
65207;SHT31;58477;48.072;11.970;2024-01-10T12:31:05;-3.79;95.34
65207;SHT31;58477;48.072;11.970;2024-01-10T12:33:33;-3.77;96.58
65207;SHT31;58477;48.072;11.970;2024-01-10T12:36:18;-3.70;95.23
65207;SHT31;58477;48.072;11.970;2024-01-10T12:38:45;-3.64;95.70
65207;SHT31;58477;48.072;11.970;2024-01-10T12:41:11;-3.67;95.71
65207;SHT31;58477;48.072;11.970;2024-01-10T12:43:37;-3.85;96.07
65207;SHT31;58477;48.072;11.970;2024-01-10T12:46:03;-3.57;95.57
65207;SHT31;58477;48.072;11.970;2024-01-10T12:48:30;-3.13;94.80
65207;SHT31;58477;48.072;11.970;2024-01-10T12:50:56;-3.32;94.31
65207;SHT31;58477;48.072;11.970;2024-01-10T12:53:21;-3.07;93.40
65207;SHT31;58477;48.072;11.970;2024-01-10T12:55:46;-2.83;92.87
65207;SHT31;58477;48.072;11.970;2024-01-10T12:58:12;-3.24;93.68
65207;SHT31;58477;48.072;11.970;2024-01-10T13:00:37;-3.88;96.08
65207;SHT31;58477;48.072;11.970;2024-01-10T13:03:04;-3.92;96.57
65207;SHT31;58477;48.072;11.970;2024-01-10T13:05:30;-3.60;96.38
65207;SHT31;58477;48.072;11.970;2024-01-10T13:07:56;-3.42;95.92
65207;SHT31;58477;48.072;11.970;2024-01-10T13:10:22;-3.68;95.80
65207;SHT31;58477;48.072;11.970;2024-01-10T13:12:47;-3.67;95.83
65207;SHT31;58477;48.072;11.970;2024-01-10T13:15:13;-3.54;95.85
65207;SHT31;58477;48.072;11.970;2024-01-10T13:17:38;-3.51;95.28
65207;SHT31;58477;48.072;11.970;2024-01-10T13:20:04;-3.89;95.80
65207;SHT31;58477;48.072;11.970;2024-01-10T13:22:30;-3.82;96.64
65207;SHT31;58477;48.072;11.970;2024-01-10T13:24:56;-3.53;96.23
65207;SHT31;58477;48.072;11.970;2024-01-10T13:27:21;-3.67;96.41
65207;SHT31;58477;48.072;11.970;2024-01-10T13:29:46;-3.43;95.99
65207;SHT31;58477;48.072;11.970;2024-01-10T13:32:12;-3.30;95.26
65207;SHT31;58477;48.072;11.970;2024-01-10T13:34:37;-3.64;95.35
65207;SHT31;58477;48.072;11.970;2024-01-10T13:37:03;-3.54;95.65
65207;SHT31;58477;48.072;11.970;2024-01-10T13:39:30;-3.57;96.11
65207;SHT31;58477;48.072;11.970;2024-01-10T13:41:55;-3.84;96.06
65207;SHT31;58477;48.072;11.970;2024-01-10T13:44:20;-3.82;97.94
65207;SHT31;58477;48.072;11.970;2024-01-10T13:46:46;-3.60;96.41
65207;SHT31;58477;48.072;11.970;2024-01-10T13:49:14;-3.57;95.81
65207;SHT31;58477;48.072;11.970;2024-01-10T13:51:40;-3.79;96.35
65207;SHT31;58477;48.072;11.970;2024-01-10T13:54:05;-4.15;97.16
65207;SHT31;58477;48.072;11.970;2024-01-10T13:56:30;-4.18;98.47
65207;SHT31;58477;48.072;11.970;2024-01-10T13:58:57;-4.05;97.71
65207;SHT31;58477;48.072;11.970;2024-01-10T14:01:23;-4.15;98.12
65207;SHT31;58477;48.072;11.970;2024-01-10T14:03:48;-4.34;98.16
65207;SHT31;58477;48.072;11.970;2024-01-10T14:06:13;-4.48;99.48
65207;SHT31;58477;48.072;11.970;2024-01-10T14:08:39;-4.33;99.49
65207;SHT31;58477;48.072;11.970;2024-01-10T14:11:06;-4.36;98.81
65207;SHT31;58477;48.072;11.970;2024-01-10T14:13:32;-4.37;99.21
65207;SHT31;58477;48.072;11.970;2024-01-10T14:15:57;-4.26;98.95
65207;SHT31;58477;48.072;11.970;2024-01-10T14:18:22;-4.37;98.22
65207;SHT31;58477;48.072;11.970;2024-01-10T14:20:48;-4.77;99.79
65207;SHT31;58477;48.072;11.970;2024-01-10T14:23:14;-4.56;99.50
65207;SHT31;58477;48.072;11.970;2024-01-10T14:25:39;-4.50;99.45
65207;SHT31;58477;48.072;11.970;2024-01-10T14:28:04;-4.56;99.30
65207;SHT31;58477;48.072;11.970;2024-01-10T14:30:30;-4.48;99.29
65207;SHT31;58477;48.072;11.970;2024-01-10T14:32:57;-4.43;99.54
65207;SHT31;58477;48.072;11.970;2024-01-10T14:35:24;-4.60;99.33
65207;SHT31;58477;48.072;11.970;2024-01-10T14:37:49;-4.72;99.80
65207;SHT31;58477;48.072;11.970;2024-01-10T14:40:15;-4.52;99.72
65207;SHT31;58477;48.072;11.970;2024-01-10T14:42:41;-4.36;99.00
65207;SHT31;58477;48.072;11.970;2024-01-10T14:45:06;-4.63;98.86
65207;SHT31;58477;48.072;11.970;2024-01-10T14:47:38;-4.48;99.52
65207;SHT31;58477;48.072;11.970;2024-01-10T14:50:04;-4.70;99.77
65207;SHT31;58477;48.072;11.970;2024-01-10T14:52:30;-4.42;99.27
65207;SHT31;58477;48.072;11.970;2024-01-10T14:54:58;-4.26;98.80
65207;SHT31;58477;48.072;11.970;2024-01-10T14:57:24;-4.46;99.46
65207;SHT31;58477;48.072;11.970;2024-01-10T14:59:50;-4.30;99.30
65207;SHT31;58477;48.072;11.970;2024-01-10T15:02:20;-4.39;98.41
65207;SHT31;58477;48.072;11.970;2024-01-10T15:04:46;-4.39;98.03
65207;SHT31;58477;48.072;11.970;2024-01-10T15:07:12;-4.33;98.16
65207;SHT31;58477;48.072;11.970;2024-01-10T15:09:45;-4.62;99.04
65207;SHT31;58477;48.072;11.970;2024-01-10T15:12:31;-4.48;99.33
65207;SHT31;58477;48.072;11.970;2024-01-10T15:14:59;-4.77;99.12
65207;SHT31;58477;48.072;11.970;2024-01-10T15:17:28;-5.05;99.99
65207;SHT31;58477;48.072;11.970;2024-01-10T15:19:59;-4.90;99.99
65207;SHT31;58477;48.072;11.970;2024-01-10T15:22:25;-4.81;99.99
65207;SHT31;58477;48.072;11.970;2024-01-10T15:24:52;-5.15;99.99
65207;SHT31;58477;48.072;11.970;2024-01-10T15:27:21;-5.20;99.99